Weather observations for the past three days for
Sisseton, Sisseton Municipal Airport
| Date | Time (cdt) | Wind (kph) | Vis. (km) | Weather | Sky Cond. | Temperature (ºC) | Relative Humidity | Wind Chill (°C) | Heat Index (°C) | Pressure | Precipitation (cm) | ||||||
|---|---|---|---|---|---|---|---|---|---|---|---|---|---|---|---|---|---|
| Air | Dwpt | 6 hour | altimeter (cm) | sea level (mb) | 1 hr | 3 hr | 6 hr | ||||||||||
| Max. | Min. | ||||||||||||||||
| 12 | 11:56 | W 30 G 39 | 0.00 | NULL | NULL | 23.9 | 8.3 | 37% | 25 | 74.65 | 994.4 | ||||||
| 12 | 10:56 | SW 28 G 46 | 0.00 | NULL | NULL | 21.1 | 10 | 49% | 74.65 | 994.7 | |||||||
| 12 | 09:56 | SW 37 G 52 | 0.00 | Breezy | NULL | 19.4 | 10.6 | 57% | 74.6 | 993.9 | |||||||
| 12 | 08:56 | SW 43 G 57 | 0.00 | Windy | NULL | 18.9 | 10.6 | 59% | 74.65 | 994.8 | |||||||
| 12 | 07:56 | S 17 G 37 | 0.00 | NULL | NULL | 16.7 | 13.3 | 80% | 74.68 | 995.3 | |||||||
| 12 | 06:56 | S 28 G 48 | 0.00 | NULL | NULL | 17.2 | 13.3 | 17.2 | 7.2 | 78% | 74.65 | 995.0 | 0.03 | 0.03 | |||
| 12 | 05:56 | S 19 G 41 | 0.00 | NULL | NULL | 14.4 | 13.3 | 93% | 74.73 | 996.4 | |||||||
| 12 | 04:56 | SE 7 | 0.00 | NULL | NULL | 10.6 | 10 | 96% | 74.8 | 997.8 | |||||||
| 12 | 03:56 | E 15 | 0.00 | NULL | NULL | 9.4 | 9.4 | 100% | 7 | 74.93 | 999.3 | ||||||
| 12 | 02:56 | SE 9 | 0.00 | NULL | NULL | 10 | 10 | 100% | 9 | 75.06 | 1001.1 | ||||||
| 12 | 01:56 | SE 7 | 0.00 | NULL | NULL | 7.2 | 7.2 | 100% | 6 | 75.11 | 1002.2 | ||||||
| 12 | 00:56 | SE 7 | 0.00 | NULL | NULL | 8.9 | 8.9 | 8.9 | 6.7 | 100% | 8 | 75.18 | 1003.2 | ||||
| 11 | 23:56 | SE 7 | 0.00 | NULL | NULL | 8.9 | 8.9 | 100% | 8 | 75.29 | 1004.4 | ||||||
| 11 | 22:56 | Calm | 0.00 | NULL | NULL | 8.3 | 8.3 | 100% | 75.39 | 1005.9 | |||||||
| 11 | 21:56 | SE 13 | 0.00 | NULL | NULL | 7.8 | 7.2 | 96% | 6 | 75.41 | 1006.1 | ||||||
| 11 | 20:56 | SE 17 | 0.00 | NULL | NULL | 7.2 | 7.2 | 100% | 5 | 75.49 | 1007.3 | ||||||
| 11 | 19:56 | SE 22 | 0.00 | NULL | NULL | 7.2 | 6.7 | 97% | 4 | 75.51 | 1007.6 | ||||||
| 11 | 18:56 | SE 19 | 0.00 | NULL | NULL | 6.7 | 6.1 | 6.7 | 5.6 | 96% | 4 | 75.59 | 1008.8 | 0.05 | |||
| 11 | 17:56 | SE 24 | 0.00 | NULL | NULL | 6.1 | 5.6 | 97% | 2 | 75.67 | 1009.7 | 0.03 | |||||
| 11 | 16:56 | SE 24 G 43 | 0.00 | NULL | NULL | 5.6 | 5 | 96% | 2 | 75.77 | 1011.1 | 0.03 | |||||
| 11 | 15:56 | SE 26 G 43 | 0.00 | NULL | NULL | 5.6 | 4.4 | 92% | 2 | 75.87 | 1012.4 | ||||||
| 11 | 14:56 | SE 37 G 54 | 0.00 | Breezy | NULL | 5.6 | 4.4 | 92% | 1 | 75.95 | 1013.7 | ||||||
| 11 | 13:56 | SE 35 G 50 | 0.00 | Breezy | NULL | 5.6 | 5 | 96% | 1 | 76.07 | 1015.3 | ||||||
| 11 | 12:56 | SE 33 G 50 | 0.00 | Breezy | NULL | 5 | 4.4 | 6.1 | 4.4 | 96% | 0 | 76.2 | 1017.2 | 0.03 | 0.05 | ||
| 11 | 11:56 | SE 39 G 59 | 0.00 | Breezy | NULL | 5.6 | 3.3 | 85% | 1 | 76.28 | 1018.3 | ||||||
| 11 | 10:56 | SE 39 G 54 | 0.00 | Breezy | NULL | 5 | 3.9 | 93% | -0 | 76.33 | 1018.9 | 0.03 | |||||
| 11 | 09:56 | SE 35 G 52 | 0.00 | Breezy | NULL | 6.1 | 2.8 | 80% | 1 | 76.4 | 1019.6 | ||||||
| 11 | 08:56 | SE 35 G 50 | 0.00 | Breezy | NULL | 5.6 | 2.2 | 79% | 1 | 76.45 | 1020.2 | ||||||
| 11 | 07:56 | SE 19 | 0.00 | NULL | NULL | 4.4 | 1.1 | 79% | 1 | 76.5 | 1020.8 | ||||||
| 11 | 06:56 | SE 17 | 0.00 | NULL | NULL | 4.4 | 0.6 | 4.4 | 2.2 | 77% | 1 | 76.53 | 1021.0 | ||||
| 11 | 05:56 | SE 17 | 0.00 | NULL | NULL | 3.9 | 1.1 | 82% | 0 | 76.61 | 1021.8 | ||||||
| 11 | 04:56 | S 15 | 0.00 | NULL | NULL | 3.9 | 0.6 | 79% | 1 | 76.66 | 1022.6 | ||||||
| 11 | 03:56 | SE 11 | 0.00 | NULL | NULL | 3.9 | 0.6 | 79% | 1 | 76.71 | 1023.2 | ||||||
| 11 | 02:56 | SE 13 | 0.00 | NULL | NULL | 3.9 | 0.6 | 79% | 1 | 76.76 | 1024.0 | ||||||
| 11 | 01:56 | SE 15 | 0.00 | NULL | NULL | 3.9 | 0 | 76% | 1 | 76.81 | 1024.8 | ||||||
| 11 | 00:56 | SE 6 | 0.00 | NULL | NULL | 2.8 | -0.6 | 12.2 | 1.1 | 79% | 76.84 | 1025.2 | |||||
| 10 | 23:56 | S 7 | 0.00 | NULL | NULL | 1.1 | -0.6 | 89% | -1 | 76.86 | 1026.1 | ||||||
| 10 | 22:56 | S 7 | 0.00 | NULL | NULL | 2.8 | 0 | 82% | 1 | 76.89 | 1026.4 | ||||||
| 10 | 21:56 | SE 9 | 0.00 | NULL | NULL | 3.3 | 0 | 79% | 1 | 76.89 | 1026.7 | ||||||
| 10 | 20:56 | E 11 | 0.00 | NULL | NULL | 5 | 0.6 | 73% | 3 | 76.86 | 1026.3 | ||||||
| 10 | 19:56 | Calm | 0.00 | NULL | NULL | 10.6 | -1.7 | 43% | 76.86 | 1025.7 | |||||||
| 10 | 18:56 | NW 7 | 0.00 | NULL | NULL | 12.2 | -1.7 | 13.3 | 8.9 | 38% | 76.86 | 1025.9 | |||||
| 10 | 17:56 | W 13 | 0.00 | NULL | NULL | 12.8 | -1.7 | 37% | 76.89 | 1026.1 | |||||||
| 10 | 16:56 | W 17 | 0.00 | NULL | NULL | 12.8 | 1.1 | 45% | 76.91 | 1026.5 | |||||||
| 10 | 15:56 | W 22 G 39 | 0.00 | NULL | NULL | 12.2 | 1.1 | 47% | 76.94 | 1027.0 | |||||||
| 10 | 14:56 | W 30 G 37 | 0.00 | NULL | NULL | 11.1 | 1.1 | 50% | 77.01 | 1027.8 | |||||||
| 10 | 13:56 | W 28 G 43 | 0.00 | NULL | NULL | 10.6 | 0.6 | 50% | 77.01 | 1028.1 | |||||||
| 10 | 12:56 | W 22 G 41 | 0.00 | NULL | NULL | 8.9 | 0.6 | 8.9 | -1.7 | 56% | 6 | 77.04 | 1028.7 | ||||
| 10 | 11:56 | SW 13 | 0.00 | NULL | NULL | 6.7 | 1.7 | 71% | 4 | 77.06 | 1029.2 | ||||||
| 10 | 10:56 | NW 13 | 0.00 | NULL | NULL | 4.4 | 0 | 73% | 2 | 77.06 | 1029.0 | ||||||
| 10 | 09:56 | W 9 G 26 | 0.00 | NULL | NULL | 1.7 | -1.7 | 78% | -1 | 77.01 | 1028.7 | ||||||
| 10 | 08:56 | SW 17 | 0.00 | NULL | NULL | 0.6 | -2.2 | 82% | -4 | 76.99 | 1028.5 | ||||||
| 10 | 07:56 | SW 19 | 0.00 | NULL | NULL | 0 | -2.8 | 82% | -5 | 76.96 | 1028.2 | ||||||
| 10 | 06:56 | SW 20 | 0.00 | NULL | NULL | -1.7 | -3.9 | -1.1 | -5 | 85% | -7 | 76.94 | 1027.9 | ||||
| 10 | 05:56 | SW 15 | 0.00 | NULL | NULL | -2.2 | -3.9 | 88% | -7 | 76.91 | 1027.8 | ||||||
| 10 | 04:56 | W 17 | 0.00 | NULL | NULL | -2.8 | -4.4 | 89% | -8 | 76.91 | 1027.7 | ||||||
| 10 | 03:56 | W 7 | 0.00 | NULL | NULL | -3.9 | -5 | 92% | -7 | 76.89 | 1027.4 | ||||||
| 10 | 02:56 | W 15 | 0.00 | NULL | NULL | -2.8 | -4.4 | 89% | -7 | 76.86 | 1026.9 | ||||||
| 10 | 01:56 | W 15 | 0.00 | NULL | NULL | -2.2 | -3.9 | 88% | -7 | 76.86 | 1026.8 | ||||||
| 10 | 00:56 | W 9 | 0.00 | NULL | NULL | -3.3 | -4.4 | -0.6 | -4.4 | 92% | -7 | 76.86 | 1026.7 | ||||
| 09 | 23:56 | SW 9 | 0.00 | NULL | NULL | -3.9 | -4.4 | 96% | -7 | 76.84 | 1026.4 | ||||||
| 09 | 22:56 | Calm | 0.00 | NULL | NULL | -0.6 | -2.8 | 85% | 76.84 | 1026.2 | |||||||
| 09 | 21:56 | W 6 | 0.00 | NULL | NULL | -1.1 | -2.8 | 88% | 76.86 | 1026.9 | |||||||
| 09 | 20:56 | SW 6 | 0.00 | NULL | NULL | -1.1 | -2.2 | 92% | 76.84 | 1026.6 | |||||||
| 09 | 19:56 | W 6 | 0.00 | NULL | NULL | -1.1 | -2.2 | 92% | 76.81 | 1026.3 | |||||||
| 09 | 18:56 | N 11 | 0.00 | NULL | NULL | -1.1 | -1.7 | 2.2 | -1.1 | 96% | -5 | 76.78 | 1025.9 | 0.03 | 0.25 | ||
| 09 | 17:56 | NW 9 | 0.00 | NULL | NULL | -1.1 | -1.1 | 100% | -4 | 76.76 | 1025.6 | 0.15 | |||||
| 09 | 16:56 | NW 11 | 0.00 | NULL | NULL | -1.1 | -1.7 | 96% | -5 | 76.76 | 1025.4 | 0.08 | |||||
| 09 | 15:56 | N 15 | 0.00 | NULL | NULL | 1.1 | -3.3 | 73% | -3 | 76.76 | 1025.2 | ||||||
| 09 | 14:56 | N 20 | 0.00 | NULL | NULL | 1.7 | -4.4 | 64% | -3 | 76.68 | 1024.3 | ||||||
| 09 | 13:56 | N 15 | 0.00 | NULL | NULL | 1.7 | -4.4 | 64% | -2 | 76.71 | 1024.3 | ||||||
| 09 | 12:56 | Calm | 0.00 | NULL | NULL | 2.2 | -4.4 | 2.2 | -0.6 | 62% | 76.66 | 1023.7 | |||||
| Date | Time (cdt) | Wind (kph) | Vis. (km) | Weather | Sky Cond. | Air | Dwpt | Max. | Min. | Relative Humidity | Wind Chill (°C) | Heat Index (°C) | altimeter (cm) | sea level (mb) | 1 hr | 3 hr | 6 hr |
| 6 hour | |||||||||||||||||
| Temperature (ºC) | Pressure | Precipitation (cm) | |||||||||||||||